South Hills, Pennsylvania
Current Conditions -  °F | °C
As of 5:23 AM on Tuesday 27 Jan 2015 (Local Time) from KAGC Reporting Station
Light Snow Light Snow  
Wind Chill: 11°   Ceiling: 900
Heat Index: 19°   Visibility: 3mi
Dew Point: 13°   Wind: 6mph
Humidity: 77%   Direction: 310°NW
Pressure: 29.84"   Gusts: NA
Location:  40.4037°N, 80.0349°W
Report Text: KAGC 271023Z 31005KT 3SM -SN BKN009 OVC020 M07/M11 A2984 RMK AO2 SNB07 P0000 T10721106
Loading
Personal Weather Stations






























Interactive Weather Map New forecast layout! Learn more

10-Day Weather Forecast

Advertisements
Track Severe Weather on mobile